createdAt,value
2023-05-15T00:00:20.734Z,4.20
2023-05-15T00:02:51.284Z,3.90
2023-05-15T00:05:20.285Z,3.93
2023-05-15T00:07:49.059Z,4.17
2023-05-15T00:10:17.828Z,4.57
2023-05-15T00:12:46.557Z,4.27
2023-05-15T00:15:15.358Z,4.30
2023-05-15T00:17:44.082Z,4.17
2023-05-15T00:20:14.717Z,4.23
2023-05-15T00:22:43.478Z,4.33
2023-05-15T00:25:12.187Z,4.20
2023-05-15T00:27:40.911Z,4.17
2023-05-15T00:30:11.208Z,4.10
2023-05-15T00:32:41.139Z,4.20
2023-05-15T00:35:10.398Z,4.10
2023-05-15T00:37:40.582Z,4.20
2023-05-15T00:40:14.057Z,3.80
2023-05-15T00:42:43.614Z,4.00
2023-05-15T00:45:14.121Z,4.63
2023-05-15T00:47:44.776Z,4.10
2023-05-15T00:50:14.349Z,4.13
2023-05-15T00:52:45.143Z,4.30
2023-05-15T00:55:13.897Z,4.27
2023-05-15T00:57:45.286Z,4.60
2023-05-15T01:00:18.442Z,4.30
2023-05-15T01:02:47.549Z,4.50
2023-05-15T01:05:16.625Z,4.33
2023-05-15T01:08:02.474Z,4.40
2023-05-15T01:10:31.341Z,4.50
2023-05-15T01:13:02.717Z,4.60
2023-05-15T01:15:31.431Z,4.67
2023-05-15T01:18:00.263Z,4.50
2023-05-15T01:20:35.455Z,4.80
2023-05-15T01:23:25.177Z,4.20
2023-05-15T01:26:44.407Z,4.03
2023-05-15T01:29:24.368Z,4.37
2023-05-15T01:32:00.854Z,4.70
2023-05-15T01:34:44.042Z,4.53
2023-05-15T01:37:15.694Z,4.70
2023-05-15T01:39:48.905Z,4.47
2023-05-15T01:42:20.972Z,4.27
2023-05-15T01:44:56.638Z,4.23
2023-05-15T01:47:36.210Z,4.10
2023-05-15T01:50:11.289Z,4.60
2023-05-15T01:52:46.314Z,4.33
2023-05-15T01:55:17.257Z,4.40
2023-05-15T01:57:49.773Z,4.30
2023-05-15T02:00:20.849Z,4.20
2023-05-15T02:02:51.802Z,4.27
2023-05-15T02:05:21.251Z,4.30
2023-05-15T02:07:51.113Z,4.60
2023-05-15T02:10:21.277Z,4.20
2023-05-15T02:12:51.792Z,4.53
2023-05-15T02:15:26.464Z,4.23
2023-05-15T02:17:56.861Z,4.53
2023-05-15T02:20:25.668Z,4.73
2023-05-15T02:22:54.385Z,4.27
2023-05-15T02:25:39.768Z,4.07
2023-05-15T02:28:20.799Z,4.30
2023-05-15T02:31:00.435Z,4.33
2023-05-15T02:33:43.895Z,4.13
2023-05-15T02:36:19.517Z,5.17
2023-05-15T02:38:53.272Z,4.80
2023-05-15T02:41:24.363Z,4.43
2023-05-15T02:43:56.365Z,4.37
2023-05-15T02:46:28.149Z,4.30
2023-05-15T02:48:57.295Z,4.83
2023-05-15T02:51:26.740Z,4.43
2023-05-15T02:53:57.632Z,4.07
2023-05-15T02:56:26.457Z,4.40
2023-05-15T02:58:55.670Z,4.60
2023-05-15T03:01:25.857Z,4.60
2023-05-15T03:03:54.677Z,4.50
2023-05-15T03:06:23.480Z,4.83
2023-05-15T03:08:52.183Z,4.60
2023-05-15T03:11:21.443Z,4.40
2023-05-15T03:13:50.118Z,4.40
2023-05-15T03:16:18.817Z,5.20
2023-05-15T03:18:49.101Z,4.27
2023-05-15T03:21:17.847Z,4.70
2023-05-15T03:23:46.574Z,4.10
2023-05-15T03:26:15.366Z,4.33
2023-05-15T03:28:45.087Z,4.87
2023-05-15T03:31:14.447Z,4.70
2023-05-15T03:33:43.372Z,4.90
2023-05-15T03:36:13.448Z,4.70
2023-05-15T03:38:44.026Z,4.70
2023-05-15T03:41:12.856Z,5.30
2023-05-15T03:43:41.536Z,5.00
2023-05-15T03:46:10.291Z,4.97
2023-05-15T03:48:42.716Z,4.83
2023-05-15T03:51:15.257Z,4.57
2023-05-15T03:53:49.373Z,4.67
2023-05-15T03:56:20.091Z,4.83
2023-05-15T03:59:32.273Z,4.60
2023-05-15T04:02:16.714Z,4.50
2023-05-15T04:04:45.843Z,5.10
2023-05-15T04:07:31.484Z,4.70
2023-05-15T04:12:42.584Z,4.70
2023-05-15T04:15:20.217Z,5.13
2023-05-15T04:17:54.528Z,4.57
2023-05-15T04:20:25.978Z,4.80
2023-05-15T04:22:58.845Z,4.93
2023-05-15T04:25:30.966Z,4.70
2023-05-15T04:28:00.027Z,4.53
2023-05-15T04:30:28.995Z,4.77
2023-05-15T04:33:35.005Z,5.17
2023-05-15T04:36:05.364Z,4.77
2023-05-15T04:38:37.539Z,4.53
2023-05-15T04:41:06.273Z,4.90
2023-05-15T04:43:38.810Z,4.90
2023-05-15T04:46:10.872Z,5.07
2023-05-15T04:48:39.930Z,4.70
2023-05-15T04:51:16.326Z,5.10
2023-05-15T04:53:46.473Z,4.90
2023-05-15T04:56:15.153Z,5.20
2023-05-15T04:58:44.090Z,5.17
2023-05-15T05:01:23.638Z,4.27
2023-05-15T05:03:53.549Z,4.80
2023-05-15T05:06:22.441Z,4.83
2023-05-15T05:08:52.444Z,4.70
2023-05-15T05:11:48.464Z,4.63
2023-05-15T05:14:17.866Z,4.77
2023-05-15T05:16:47.023Z,4.57
2023-05-15T05:19:15.798Z,4.20
2023-05-15T05:21:44.631Z,4.40
2023-05-15T05:24:14.761Z,4.30
2023-05-15T05:26:45.871Z,4.63
2023-05-15T05:29:14.627Z,4.43
2023-05-15T05:31:43.313Z,4.00
2023-05-15T05:34:12.004Z,4.23
2023-05-15T05:36:40.802Z,4.10
2023-05-15T05:39:09.483Z,4.23
2023-05-15T05:41:39.570Z,4.33
2023-05-15T05:44:08.243Z,4.90
2023-05-15T05:46:37.156Z,5.13
2023-05-15T05:49:06.059Z,4.80
2023-05-15T05:51:37.079Z,4.33
2023-05-15T05:54:06.500Z,4.70
2023-05-15T05:56:35.374Z,5.00
2023-05-15T05:59:06.567Z,4.80
2023-05-15T06:01:37.489Z,4.63
2023-05-15T06:04:06.932Z,5.17
2023-05-15T06:06:35.808Z,4.40
2023-05-15T06:09:05.683Z,6.90
2023-05-15T06:11:34.915Z,7.17
2023-05-15T06:14:05.047Z,5.47
2023-05-15T06:16:33.839Z,7.23
2023-05-15T06:19:02.764Z,7.53
2023-05-15T06:21:31.579Z,7.10
2023-05-15T06:24:00.443Z,7.23
2023-05-15T06:26:29.216Z,7.17
2023-05-15T06:28:57.901Z,6.70
2023-05-15T06:31:28.093Z,6.90
2023-05-15T06:33:56.951Z,6.60
2023-05-15T06:36:25.664Z,6.60
2023-05-15T06:38:54.404Z,7.33
2023-05-15T06:41:23.146Z,6.00
2023-05-15T06:43:51.832Z,5.90
2023-05-15T06:46:20.800Z,5.70
2023-05-15T06:48:50.916Z,5.80
2023-05-15T06:51:19.589Z,6.23
2023-05-15T06:53:48.532Z,6.17
2023-05-15T06:56:17.229Z,6.00
2023-05-15T06:58:46.056Z,5.87
2023-05-15T07:01:14.798Z,6.20
2023-05-15T07:03:44.161Z,5.80
2023-05-15T07:06:14.253Z,6.30
2023-05-15T07:08:43.172Z,6.37
2023-05-15T07:11:11.880Z,5.93
2023-05-15T07:13:40.599Z,6.17
2023-05-15T07:16:09.398Z,5.60
2023-05-15T07:18:38.251Z,6.23
2023-05-15T07:21:07.610Z,5.67
2023-05-15T07:23:37.746Z,6.10
2023-05-15T07:26:08.766Z,5.80
2023-05-15T07:28:40.852Z,6.00
2023-05-15T07:31:09.959Z,5.83
2023-05-15T07:33:38.853Z,6.37
2023-05-15T07:36:08.332Z,5.93
2023-05-15T07:38:38.476Z,6.10
2023-05-15T07:41:07.209Z,5.67
2023-05-15T07:43:35.960Z,5.53
2023-05-15T07:46:04.671Z,5.30
2023-05-15T07:48:33.451Z,6.03
2023-05-15T07:51:02.482Z,5.70
2023-05-15T07:53:34.848Z,5.87
2023-05-15T07:56:05.540Z,5.80
2023-05-15T07:58:35.628Z,6.20
2023-05-15T08:01:04.332Z,5.60
2023-05-15T08:03:34.118Z,6.83
2023-05-15T08:06:02.940Z,6.27
2023-05-15T08:08:31.819Z,6.23
2023-05-15T08:11:00.499Z,6.30
2023-05-15T08:13:30.658Z,6.30
2023-05-15T08:15:59.480Z,5.77
2023-05-15T08:18:28.167Z,6.63
2023-05-15T08:20:56.841Z,6.27
2023-05-15T08:23:25.673Z,5.67
2023-05-15T08:25:54.381Z,6.40
2023-05-15T08:28:23.081Z,6.20
2023-05-15T08:30:53.264Z,5.87
2023-05-15T08:33:22.031Z,5.90
2023-05-15T08:35:51.958Z,6.00
2023-05-15T08:38:20.769Z,6.27
2023-05-15T08:40:54.193Z,6.50
2023-05-15T08:43:24.699Z,6.00
2023-05-15T08:45:56.887Z,6.27
2023-05-15T08:48:30.686Z,6.17
2023-05-15T08:51:01.636Z,6.90
2023-05-15T08:53:31.928Z,6.60
2023-05-15T08:56:03.739Z,6.97
2023-05-15T08:58:34.231Z,6.77
2023-05-15T09:01:05.384Z,6.80
2023-05-15T09:03:34.190Z,6.77
2023-05-15T09:06:04.520Z,7.30
2023-05-15T09:08:35.569Z,7.63
2023-05-15T09:11:07.961Z,6.77
2023-05-15T09:13:36.736Z,7.20
2023-05-15T09:16:08.931Z,7.23
2023-05-15T09:18:40.152Z,7.83
2023-05-15T09:21:26.193Z,7.20
2023-05-15T09:23:56.410Z,7.30
2023-05-15T09:26:25.884Z,7.23
2023-05-15T09:29:04.134Z,8.20
2023-05-15T09:31:34.890Z,7.83
2023-05-15T09:34:06.571Z,7.17
2023-05-15T09:36:35.293Z,8.07
2023-05-15T09:39:04.474Z,8.77
2023-05-15T09:41:33.153Z,8.47
2023-05-15T09:44:02.090Z,8.63
2023-05-15T09:46:31.332Z,8.67
2023-05-15T09:49:01.665Z,8.10
2023-05-15T09:51:30.424Z,7.87
2023-05-15T09:53:59.657Z,7.97
2023-05-15T09:56:28.511Z,6.90
2023-05-15T09:58:58.879Z,7.17
2023-05-15T10:01:28.627Z,6.20
2023-05-15T10:04:04.145Z,6.30
2023-05-15T10:06:37.717Z,5.63
2023-05-15T10:09:07.347Z,6.47
2023-05-15T10:11:38.821Z,6.30
2023-05-15T10:14:09.384Z,6.60
2023-05-15T10:16:40.599Z,6.73
2023-05-15T10:19:13.408Z,6.37
2023-05-15T10:21:43.426Z,7.30
2023-05-15T10:24:13.709Z,6.53
2023-05-15T10:26:44.594Z,6.50
2023-05-15T10:29:15.301Z,6.80
2023-05-15T10:31:44.728Z,6.67
2023-05-15T10:34:15.530Z,6.53
2023-05-15T10:36:45.114Z,7.30
2023-05-15T10:39:14.620Z,7.07
2023-05-15T10:41:46.414Z,7.40
2023-05-15T10:44:17.960Z,7.87
2023-05-15T10:46:47.033Z,7.70
2023-05-15T10:49:17.938Z,6.97
2023-05-15T10:51:46.661Z,7.10
2023-05-15T10:54:16.623Z,8.17
2023-05-15T10:56:45.489Z,8.83
2023-05-15T10:59:14.233Z,7.43
2023-05-15T11:01:43.358Z,7.90
2023-05-15T11:04:14.706Z,7.32
2023-05-15T11:06:47.853Z,6.95
2023-05-15T11:09:36.717Z,6.70
2023-05-15T11:12:15.041Z,6.30
2023-05-15T11:15:05.718Z,7.30
2023-05-15T11:17:38.488Z,10.17
2023-05-15T11:20:08.457Z,11.05
2023-05-15T11:23:13.680Z,12.60
2023-05-15T11:25:44.821Z,13.93
2023-05-15T11:28:24.757Z,14.87
2023-05-15T11:30:54.924Z,13.63
2023-05-15T11:33:25.352Z,12.90
2023-05-15T11:36:01.232Z,12.63
2023-05-15T11:38:30.031Z,11.97
2023-05-15T11:41:03.578Z,12.43
2023-05-15T11:43:34.119Z,12.27
2023-05-15T11:46:09.391Z,13.80
2023-05-15T11:48:43.348Z,13.67
2023-05-15T11:51:20.371Z,10.67
2023-05-15T11:53:51.797Z,13.13
2023-05-15T11:56:22.881Z,9.77
2023-05-15T11:58:52.904Z,9.77
2023-05-15T12:01:21.936Z,8.80
2023-05-15T12:03:54.409Z,10.13
2023-05-15T12:06:24.872Z,8.07
2023-05-15T12:08:55.221Z,8.90
2023-05-15T12:11:29.018Z,7.63
2023-05-15T12:14:01.029Z,7.40
2023-05-15T12:16:30.244Z,6.90
2023-05-15T12:19:01.338Z,6.57
2023-05-15T12:21:30.226Z,6.30
2023-05-15T12:24:07.699Z,7.03
2023-05-15T12:26:37.339Z,6.47
2023-05-15T12:29:07.101Z,6.07
2023-05-15T12:31:37.454Z,7.13
2023-05-15T12:34:10.938Z,6.07
2023-05-15T12:36:42.905Z,6.00
2023-05-15T12:39:12.972Z,6.25
2023-05-15T12:41:41.951Z,6.33
2023-05-15T12:44:18.954Z,6.20
2023-05-15T12:46:48.272Z,5.93
2023-05-15T12:49:24.947Z,5.90
2023-05-15T12:51:54.004Z,4.93
2023-05-15T12:54:25.407Z,4.88
2023-05-15T12:56:57.007Z,4.60
2023-05-15T12:59:26.476Z,4.65
2023-05-15T13:01:55.332Z,4.57
2023-05-15T13:04:25.573Z,4.60
2023-05-15T13:06:54.386Z,4.60
2023-05-15T13:09:24.052Z,3.72
2023-05-15T13:11:52.786Z,4.43
2023-05-15T13:14:23.496Z,4.28
2023-05-15T13:16:52.911Z,3.95
2023-05-15T13:19:21.695Z,3.92
2023-05-15T13:21:54.314Z,3.45
2023-05-15T13:24:23.328Z,3.80
2023-05-15T13:26:52.660Z,3.80
2023-05-15T13:29:21.379Z,3.65
2023-05-15T13:31:50.281Z,3.67
2023-05-15T13:34:19.085Z,3.50
2023-05-15T13:36:47.921Z,3.83
2023-05-15T13:39:19.379Z,3.88
2023-05-15T13:41:48.620Z,3.83
2023-05-15T13:47:17.585Z,3.65
2023-05-15T13:49:47.538Z,4.00
2023-05-15T13:52:17.350Z,3.92
2023-05-15T13:54:49.197Z,3.90
2023-05-15T13:57:20.408Z,4.00
2023-05-15T13:59:52.782Z,3.78
2023-05-15T14:02:23.531Z,3.85
2023-05-15T14:04:57.226Z,3.70
2023-05-15T14:07:29.438Z,4.45
2023-05-15T14:10:00.235Z,4.03
2023-05-15T14:15:50.556Z,3.72
2023-05-15T14:18:19.537Z,3.55
2023-05-15T14:20:48.513Z,3.03
2023-05-15T14:23:23.023Z,3.35
2023-05-15T14:25:53.278Z,3.35
2023-05-15T14:32:27.131Z,3.42
2023-05-15T14:34:59.820Z,3.75
2023-05-15T14:37:41.198Z,3.92
2023-05-15T14:41:35.471Z,3.80
2023-05-15T14:44:07.454Z,3.75
2023-05-15T14:46:37.965Z,4.20
2023-05-15T14:49:07.111Z,4.65
2023-05-15T14:51:36.289Z,4.60
2023-05-15T14:54:05.800Z,5.57
2023-05-15T14:57:10.076Z,5.13
2023-05-15T15:00:06.737Z,5.50
2023-05-15T15:02:38.822Z,5.22
2023-05-15T15:05:09.328Z,4.50
2023-05-15T15:08:02.047Z,4.82
2023-05-15T15:11:47.361Z,5.03
2023-05-15T15:14:20.368Z,4.90
2023-05-15T15:17:16.731Z,4.65
2023-05-15T15:19:45.449Z,4.72
2023-05-15T15:22:18.352Z,5.10
2023-05-15T15:24:47.113Z,4.88
2023-05-15T15:27:18.461Z,4.85
2023-05-15T15:29:48.083Z,4.78
2023-05-15T15:32:18.863Z,4.97
2023-05-15T15:34:48.568Z,5.30
2023-05-15T15:37:17.590Z,4.70
2023-05-15T15:39:47.050Z,4.50
2023-05-15T15:42:16.833Z,7.03
2023-05-15T15:44:45.965Z,5.10
2023-05-15T15:47:17.596Z,5.30
2023-05-15T15:49:51.574Z,5.40
2023-05-15T15:52:21.522Z,4.03
2023-05-15T15:54:50.380Z,3.70
2023-05-15T15:57:20.674Z,4.05
2023-05-15T15:59:50.068Z,3.20
2023-05-15T16:02:19.078Z,3.40
2023-05-15T16:04:51.062Z,3.40
2023-05-15T16:07:19.756Z,2.70
2023-05-15T16:09:56.885Z,3.08
2023-05-15T16:12:37.197Z,2.88
2023-05-15T16:15:20.748Z,2.50
2023-05-15T16:17:54.959Z,2.42
2023-05-15T16:20:25.633Z,2.72
2023-05-15T16:22:54.763Z,3.20
2023-05-15T16:25:23.635Z,3.22
2023-05-15T16:27:56.965Z,3.00
2023-05-15T16:30:33.636Z,2.80
2023-05-15T16:33:14.797Z,2.72
2023-05-15T16:35:45.625Z,2.80
2023-05-15T16:38:16.040Z,2.53
2023-05-15T16:40:52.128Z,2.55
2023-05-15T16:43:23.614Z,3.00
2023-05-15T16:46:00.050Z,2.50
2023-05-15T16:48:28.931Z,2.95
2023-05-15T16:50:59.142Z,3.15
2023-05-15T16:53:29.843Z,2.78
2023-05-15T16:55:58.722Z,2.60
2023-05-15T16:58:27.537Z,2.95
2023-05-15T17:00:56.638Z,2.72
2023-05-15T17:03:26.336Z,2.83
2023-05-15T17:05:54.999Z,2.60
2023-05-15T17:08:25.046Z,2.80
2023-05-15T17:10:54.471Z,2.45
2023-05-15T17:13:23.276Z,2.78
2023-05-15T17:15:52.087Z,2.85
2023-05-15T17:18:21.046Z,2.70
2023-05-15T17:20:49.916Z,2.92
2023-05-15T17:23:19.177Z,3.05
2023-05-15T17:25:50.256Z,2.60
2023-05-15T17:28:19.070Z,2.70
2023-05-15T17:30:49.056Z,2.63
2023-05-15T17:33:18.283Z,2.97
2023-05-15T17:35:47.732Z,3.00
2023-05-15T17:38:16.361Z,3.28
2023-05-15T17:40:45.065Z,2.92
2023-05-15T17:43:15.239Z,3.20
2023-05-15T17:45:43.919Z,3.30
2023-05-15T17:48:12.583Z,3.70
2023-05-15T17:50:42.109Z,3.57
2023-05-15T17:53:10.814Z,3.95
2023-05-15T17:55:39.475Z,4.53
2023-05-15T17:58:08.323Z,4.10
2023-05-15T18:00:38.753Z,4.17
2023-05-15T18:03:08.295Z,4.40
2023-05-15T18:05:37.063Z,4.10
2023-05-15T18:08:06.894Z,4.07
2023-05-15T18:10:35.542Z,4.00
2023-05-15T18:13:04.180Z,4.97
2023-05-15T18:15:35.167Z,4.40
2023-05-15T18:18:05.990Z,4.50
2023-05-15T18:20:35.078Z,4.60
2023-05-15T18:23:03.813Z,5.37
2023-05-15T18:25:36.798Z,6.27
2023-05-15T18:28:05.647Z,7.17
2023-05-15T18:30:36.399Z,11.90
2023-05-15T18:33:06.743Z,7.50
2023-05-15T18:35:37.284Z,6.17
2023-05-15T18:38:07.204Z,7.00
2023-05-15T18:40:36.151Z,6.77
2023-05-15T18:43:05.057Z,7.03
2023-05-15T18:45:33.850Z,8.97
2023-05-15T18:48:03.149Z,7.20
2023-05-15T18:50:33.392Z,7.67
2023-05-15T18:53:02.654Z,5.67
2023-05-15T18:55:32.375Z,5.70
2023-05-15T18:58:01.030Z,5.50
2023-05-15T19:03:02.620Z,5.23
2023-05-15T19:05:34.129Z,5.50
2023-05-15T19:08:03.951Z,5.57
2023-05-15T19:10:32.679Z,8.30
2023-05-15T19:13:01.334Z,8.20
2023-05-15T19:15:30.284Z,6.50
2023-05-15T19:17:59.070Z,6.50
2023-05-15T19:20:27.962Z,6.13
2023-05-15T19:22:58.185Z,6.03
2023-05-15T19:25:27.084Z,5.07
2023-05-15T19:27:56.209Z,5.40
2023-05-15T19:30:25.423Z,5.77
2023-05-15T19:32:54.233Z,6.20
2023-05-15T19:35:22.988Z,5.80
2023-05-15T19:37:51.653Z,6.63
2023-05-15T19:40:21.852Z,6.70
2023-05-15T19:42:50.520Z,6.70
2023-05-15T19:45:19.184Z,7.63
2023-05-15T19:47:47.901Z,7.87
2023-05-15T19:50:17.022Z,8.93
2023-05-15T19:52:45.793Z,9.67
2023-05-15T19:55:14.623Z,8.53
2023-05-15T19:57:46.073Z,8.73
2023-05-15T20:00:16.074Z,7.00
2023-05-15T20:02:44.791Z,6.70
2023-05-15T20:05:13.494Z,7.13
2023-05-15T20:07:43.202Z,7.10
2023-05-15T20:10:12.123Z,6.53
2023-05-15T20:12:40.800Z,6.93
2023-05-15T20:15:13.337Z,5.87
2023-05-15T20:17:42.230Z,6.47
2023-05-15T20:20:12.376Z,6.27
2023-05-15T20:22:43.606Z,6.20
2023-05-15T20:25:12.671Z,6.30
2023-05-15T20:27:41.299Z,6.20
2023-05-15T20:30:13.042Z,6.50
2023-05-15T20:32:41.829Z,5.77
2023-05-15T20:35:12.279Z,5.67
2023-05-15T20:37:41.059Z,5.50
2023-05-15T20:40:12.862Z,6.47
2023-05-15T20:42:41.627Z,5.87
2023-05-15T20:45:12.608Z,5.27
2023-05-15T20:47:41.544Z,5.30
2023-05-15T20:50:11.525Z,5.60
2023-05-15T20:52:40.403Z,5.90
2023-05-15T20:55:16.256Z,5.17
2023-05-15T20:57:46.113Z,5.33
2023-05-15T21:00:19.053Z,5.27
2023-05-15T21:02:48.406Z,5.23
2023-05-15T21:05:17.189Z,5.37
2023-05-15T21:07:45.880Z,5.40
2023-05-15T21:10:14.548Z,5.23
2023-05-15T21:12:43.357Z,4.90
2023-05-15T21:15:12.519Z,5.70
2023-05-15T21:17:42.651Z,4.90
2023-05-15T21:20:12.547Z,5.27
2023-05-15T21:22:41.376Z,5.50
2023-05-15T21:25:11.997Z,5.53
2023-05-15T21:27:42.096Z,5.70
2023-05-15T21:30:12.128Z,5.60
2023-05-15T21:32:42.457Z,5.80
2023-05-15T21:35:11.462Z,5.30
2023-05-15T21:37:40.129Z,5.60
2023-05-15T21:40:10.591Z,5.60
2023-05-15T21:42:39.228Z,5.73
2023-05-15T21:45:09.333Z,6.00
2023-05-15T21:47:38.132Z,5.57
2023-05-15T21:50:09.363Z,5.70
2023-05-15T21:52:38.023Z,5.93
2023-05-15T21:55:08.271Z,5.90
2023-05-15T21:57:36.994Z,6.33
2023-05-15T22:00:08.298Z,6.30
2023-05-15T22:02:37.170Z,5.90
2023-05-15T22:05:07.950Z,5.63
2023-05-15T22:07:36.599Z,5.80
2023-05-15T22:10:06.180Z,6.27
2023-05-15T22:12:34.905Z,6.30
2023-05-15T22:15:03.545Z,6.10
2023-05-15T22:17:32.152Z,5.80
2023-05-15T22:20:07.926Z,6.03
2023-05-15T22:22:39.135Z,6.07
2023-05-15T22:25:09.235Z,6.47
2023-05-15T22:27:37.867Z,6.50
2023-05-15T22:30:08.673Z,6.73
2023-05-15T22:32:37.388Z,6.70
2023-05-15T22:35:08.400Z,6.40
2023-05-15T22:37:40.741Z,6.37
2023-05-15T22:40:12.785Z,6.33
2023-05-15T22:42:41.880Z,6.70
2023-05-15T22:45:11.897Z,6.67
2023-05-15T22:47:40.552Z,6.80
2023-05-15T22:50:10.859Z,6.80
2023-05-15T22:52:41.033Z,6.70
2023-05-15T22:55:12.688Z,6.50
2023-05-15T22:57:41.423Z,6.97
2023-05-15T23:00:11.341Z,6.50
2023-05-15T23:02:42.601Z,6.50
2023-05-15T23:05:12.965Z,6.60
2023-05-15T23:07:43.005Z,6.80
2023-05-15T23:10:12.293Z,6.63
2023-05-15T23:12:41.434Z,7.00
2023-05-15T23:15:11.466Z,6.97
2023-05-15T23:17:41.547Z,6.80
2023-05-15T23:20:12.854Z,7.10
2023-05-15T23:22:43.009Z,6.97
2023-05-15T23:25:12.060Z,7.20
2023-05-15T23:27:40.798Z,6.97
2023-05-15T23:30:11.035Z,7.50
2023-05-15T23:32:39.693Z,7.83
2023-05-15T23:35:09.188Z,7.60
2023-05-15T23:37:38.007Z,7.60
2023-05-15T23:40:09.847Z,7.03
2023-05-15T23:42:38.485Z,7.67
2023-05-15T23:45:09.137Z,7.40
2023-05-15T23:47:37.790Z,7.77
2023-05-15T23:50:08.734Z,7.33
2023-05-15T23:52:37.388Z,7.27
2023-05-15T23:55:08.811Z,7.33
2023-05-15T23:57:37.508Z,7.67
